Time;durP1;ratioP1;P1;durP2;ratioP2;P2;SDS_P1;SDS_P2;PMS_P1;PMS_P2;Temp;Humidity;BMP_temperature;BMP_pressure;BME280_temperature;BME280_humidity;BME280_pressure;Samples;Min_cycle;Max_cycle;Signal;HPM_P1;HPM_P2
2022/01/26 00:05:44;;;;;;;50.47;19.48;;;4.70;99.90;;;;;;5112806;28;20054;-70
2022/01/26 00:06:32;;;;;;;47.92;18.73;;;4.10;99.90;;;;;;5111806;28;20062;-69
2022/01/26 00:08:58;;;;;;;45.88;19.30;;;4.20;99.90;;;;;;5113307;28;20051;-70
2022/01/26 00:11:24;;;;;;;46.30;19.20;;;4.10;99.90;;;;;;5111995;28;20403;-70
2022/01/26 00:13:51;;;;;;;46.95;19.23;;;4.60;99.90;;;;;;5113056;28;20051;-69
2022/01/26 00:16:27;;;;;;;43.75;18.80;;;4.10;99.90;;;;;;5112894;28;20054;-71
2022/01/26 00:18:57;;;;;;;38.83;16.88;;;4.20;99.90;;;;;;5112983;28;20142;-70
2022/01/26 00:24:12;;;;;;;47.15;18.95;;;4.20;99.90;;;;;;5112829;28;20055;-70
2022/01/26 00:29:40;;;;;;;41.28;17.05;;;4.20;99.90;;;;;;5112426;28;20112;-69
2022/01/26 00:40:43;;;;;;;;;;;4.30;99.90;;;;;;5112032;28;20060;-70
2022/01/26 00:43:26;;;;;;;48.80;20.40;;;4.60;99.90;;;;;;5112048;28;19938;-69
2022/01/26 00:45:56;;;;;;;45.55;19.35;;;4.10;99.90;;;;;;5112553;28;20086;-70
2022/01/26 00:48:23;;;;;;;44.08;18.90;;;4.20;99.90;;;;;;5112376;28;20059;-70
2022/01/26 00:50:53;;;;;;;47.70;20.15;;;4.40;99.90;;;;;;5112462;28;20052;-70
2022/01/26 00:53:27;;;;;;;48.72;20.50;;;4.60;99.90;;;;;;5112273;28;20044;-70
2022/01/26 00:55:53;;;;;;;45.28;18.38;;;4.50;99.90;;;;;;5110378;28;20138;-70
2022/01/26 00:58:19;;;;;;;46.72;18.15;;;4.30;99.90;;;;;;5112187;28;20135;-70
2022/01/26 01:00:45;;;;;;;40.83;16.88;;;4.70;99.90;;;;;;5112053;28;20096;-70
2022/01/26 01:03:11;;;;;;;44.42;18.15;;;5.00;99.90;;;;;;5111756;28;20398;-70
2022/01/26 01:05:44;;;;;;;43.47;17.45;;;4.20;99.90;;;;;;5112150;28;20541;-70
2022/01/26 01:08:15;;;;;;;42.33;17.75;;;4.30;99.90;;;;;;5111638;28;20052;-69
2022/01/26 01:10:45;;;;;;;43.67;18.23;;;4.30;99.90;;;;;;5111756;28;20055;-71
2022/01/26 01:13:15;;;;;;;38.42;16.88;;;4.10;99.90;;;;;;5115121;28;20060;-70
2022/01/26 01:15:42;;;;;;;42.33;17.80;;;4.10;99.90;;;;;;5115714;28;20394;-69
2022/01/26 01:18:33;;;;;;;40.28;16.55;;;4.30;99.90;;;;;;5115395;28;20048;-69
2022/01/26 01:27:02;;;;;;;39.92;17.50;;;4.20;99.90;;;;;;5114112;28;20130;-69
2022/01/26 01:34:09;;;;;;;37.50;15.88;;;4.20;99.90;;;;;;5115465;28;20116;-69
2022/01/26 01:36:37;;;;;;;42.92;17.70;;;4.70;99.90;;;;;;5097274;28;20116;-69
2022/01/26 01:39:07;;;;;;;42.40;18.00;;;4.20;99.90;;;;;;5113893;28;20058;-69
2022/01/26 01:41:33;;;;;;;39.38;17.25;;;4.40;99.90;;;;;;5115148;28;20059;-69
2022/01/26 01:43:59;;;;;;;39.92;17.02;;;4.30;99.90;;;;;;5115078;28;20082;-69
2022/01/26 01:46:27;;;;;;;39.35;16.05;;;4.10;99.90;;;;;;5113539;28;20448;-70
2022/01/26 01:48:53;;;;;;;44.42;18.85;;;4.50;99.90;;;;;;5113355;28;20095;-69
2022/01/26 01:51:19;;;;;;;42.47;17.52;;;3.90;99.90;;;;;;5114898;28;20113;-69
2022/01/26 01:53:45;;;;;;;43.08;17.83;;;4.30;99.90;;;;;;5114796;28;20126;-69
2022/01/26 01:56:17;;;;;;;46.42;17.55;;;4.50;99.90;;;;;;5114724;28;20138;-70
2022/01/26 01:58:43;;;;;;;41.45;16.88;;;3.80;99.90;;;;;;5114895;28;20391;-69
2022/01/26 02:01:09;;;;;;;39.95;16.98;;;4.50;99.90;;;;;;5113983;28;20047;-70
2022/01/26 02:03:35;;;;;;;48.70;17.65;;;4.20;99.90;;;;;;5114653;28;20059;-69
2022/01/26 02:06:02;;;;;;;48.45;18.88;;;4.30;99.90;;;;;;5113136;28;20043;-69
2022/01/26 02:08:27;;;;;;;40.50;17.17;;;3.90;99.90;;;;;;5113940;28;20051;-69
2022/01/26 02:10:53;;;;;;;45.20;17.65;;;4.10;99.90;;;;;;5113293;28;20039;-69
2022/01/26 02:16:01;;;;;;;46.38;19.13;;;4.80;99.90;;;;;;5114316;28;20403;-69
2022/01/26 02:18:50;;;;;;;50.47;19.67;;;3.60;99.90;;;;;;5114348;28;20047;-69
2022/01/26 03:02:08;;;;;;;48.17;20.23;;;4.20;99.90;;;;;;5112005;28;20135;-69
2022/01/26 03:04:44;;;;;;;39.97;17.90;;;4.30;99.90;;;;;;5113090;28;20104;-69
2022/01/26 03:07:17;;;;;;;49.13;20.02;;;3.90;99.90;;;;;;5113479;28;20051;-69
2022/01/26 03:09:55;;;;;;;50.40;18.65;;;3.60;99.90;;;;;;5113448;28;20050;-70
2022/01/26 03:12:31;;;;;;;50.53;20.05;;;4.30;99.90;;;;;;5113716;28;20052;-70
2022/01/26 03:15:09;;;;;;;45.55;18.52;;;3.80;99.90;;;;;;5113673;28;20062;-69
2022/01/26 03:17:59;;;;;;;46.92;19.63;;;3.90;99.90;;;;;;5113535;28;20047;-69
2022/01/26 03:20:23;;;;;;;45.30;17.95;;;4.00;99.90;;;;;;5116480;28;20059;-69
2022/01/26 03:28:25;;;;;;;46.20;18.65;;;4.00;99.90;;;;;;5117662;28;20048;-69
2022/01/26 03:31:56;;;;;;;47.00;19.52;;;3.90;99.90;;;;;;5116569;28;20055;-70
2022/01/26 03:36:28;;;;;;;43.00;19.20;;;4.10;99.90;;;;;;5116266;28;20064;-70
2022/01/26 03:39:02;;;;;;;50.28;19.05;;;3.90;99.90;;;;;;5117531;28;20135;-69
2022/01/26 03:44:12;;;;;;;45.58;19.42;;;4.30;99.90;;;;;;5117279;28;20047;-71
2022/01/26 03:46:39;;;;;;;48.17;18.95;;;3.70;99.90;;;;;;5099330;28;20043;-71
2022/01/26 03:49:06;;;;;;;52.92;20.77;;;4.60;99.90;;;;;;5099401;28;20106;-71
2022/01/26 03:51:33;;;;;;;47.92;19.15;;;3.80;99.90;;;;;;5099164;28;20051;-71
2022/01/26 03:54:00;;;;;;;45.10;19.15;;;3.40;99.90;;;;;;5100106;28;20078;-72
2022/01/26 03:56:26;;;;;;;48.10;19.27;;;3.50;99.90;;;;;;5098791;28;20487;-71
2022/01/26 03:58:52;;;;;;;46.90;19.42;;;3.80;99.90;;;;;;5083305;28;20134;-71
2022/01/26 04:01:18;;;;;;;52.10;19.45;;;3.80;99.90;;;;;;5116256;28;20066;-71
2022/01/26 04:03:43;;;;;;;48.03;18.88;;;3.80;99.90;;;;;;5066684;28;20040;-71
2022/01/26 04:06:09;;;;;;;49.92;18.98;;;3.50;99.90;;;;;;5099014;28;20044;-71
2022/01/26 04:08:37;;;;;;;48.55;18.08;;;3.40;99.90;;;;;;5115915;28;20047;-71
2022/01/26 04:13:29;;;;;;;44.75;18.63;;;3.70;99.90;;;;;;5099231;28;20391;-71
2022/01/26 04:15:55;;;;;;;45.83;18.63;;;3.40;99.90;;;;;;5116370;28;20046;-71
2022/01/26 04:18:27;;;;;;;43.78;18.30;;;4.40;99.90;;;;;;5098864;28;20132;-71
2022/01/26 04:20:56;;;;;;;43.47;18.33;;;3.50;99.90;;;;;;5116013;28;20044;-71
2022/01/26 04:23:41;;;;;;;39.78;17.13;;;3.70;99.90;;;;;;5099244;28;20285;-71
2022/01/26 04:26:07;;;;;;;46.58;18.88;;;3.50;99.90;;;;;;5098848;28;20097;-71
2022/01/26 04:28:41;;;;;;;46.20;18.83;;;3.50;99.90;;;;;;5115828;28;20047;-71
2022/01/26 04:31:09;;;;;;;52.45;19.67;;;3.50;99.90;;;;;;5116296;28;20055;-71
2022/01/26 04:33:35;;;;;;;46.85;17.63;;;3.90;99.90;;;;;;5116667;28;20048;-71
2022/01/26 04:36:03;;;;;;;43.60;17.98;;;3.70;99.90;;;;;;5115702;28;20134;-72
2022/01/26 04:38:36;;;;;;;44.13;17.50;;;3.70;99.90;;;;;;5099242;28;20079;-71
2022/01/26 04:43:31;;;;;;;44.83;18.90;;;3.80;99.90;;;;;;5116831;28;20096;-72
2022/01/26 04:45:57;;;;;;;40.63;17.73;;;3.80;99.90;;;;;;5116438;28;20043;-72
2022/01/26 04:48:25;;;;;;;46.83;17.90;;;3.70;99.90;;;;;;5115644;28;20055;-71
2022/01/26 04:50:51;;;;;;;40.50;17.30;;;4.00;99.90;;;;;;5115389;28;20048;-71
2022/01/26 04:53:17;;;;;;;47.47;19.30;;;3.90;99.90;;;;;;5116462;28;20122;-72
2022/01/26 04:55:43;;;;;;;45.22;17.73;;;3.80;99.90;;;;;;5116130;28;20513;-71
2022/01/26 04:58:09;;;;;;;43.45;17.92;;;3.70;99.90;;;;;;5064806;28;20044;-72
2022/01/26 05:00:34;;;;;;;44.65;17.35;;;4.30;99.90;;;;;;5116706;28;20465;-71
2022/01/26 05:03:00;;;;;;;43.17;16.88;;;3.50;99.90;;;;;;5097879;28;20055;-71
2022/01/26 05:05:26;;;;;;;47.17;16.15;;;4.30;99.90;;;;;;5097839;28;20116;-71
2022/01/26 05:07:52;;;;;;;45.83;18.30;;;3.70;99.90;;;;;;5116007;28;20122;-71
2022/01/26 05:10:18;;;;;;;43.70;17.02;;;3.80;99.90;;;;;;5098129;28;20100;-72
2022/01/26 05:12:43;;;;;;;46.03;17.17;;;3.70;99.90;;;;;;5097968;28;20095;-71
2022/01/26 05:15:09;;;;;;;43.20;16.58;;;3.90;99.90;;;;;;5114540;28;20299;-72
2022/01/26 05:17:36;;;;;;;41.78;16.90;;;4.30;99.90;;;;;;5114752;28;20043;-71
2022/01/26 05:20:05;;;;;;;44.47;17.67;;;4.10;99.90;;;;;;5115414;28;20039;-71
2022/01/26 05:22:32;;;;;;;43.28;18.52;;;3.70;99.90;;;;;;5114631;28;20047;-71
2022/01/26 05:24:58;;;;;;;40.45;16.58;;;3.70;99.90;;;;;;5114564;28;20083;-71
2022/01/26 05:27:24;;;;;;;46.40;16.92;;;3.80;99.90;;;;;;5115197;28;20071;-71
2022/01/26 05:29:49;;;;;;;37.53;16.48;;;3.90;99.90;;;;;;5080871;28;20060;-72
2022/01/26 05:32:15;;;;;;;44.53;17.05;;;3.80;99.90;;;;;;5114497;28;20075;-71
2022/01/26 05:34:41;;;;;;;45.58;17.55;;;3.70;99.90;;;;;;5116108;28;20090;-71
2022/01/26 05:37:06;;;;;;;39.13;16.33;;;3.70;99.90;;;;;;5116322;27;20108;-71
2022/01/26 05:39:33;;;;;;;40.17;15.93;;;3.70;99.90;;;;;;5116202;28;20088;-71
2022/01/26 05:42:03;;;;;;;38.60;16.25;;;3.90;99.90;;;;;;5114330;28;20136;-71
2022/01/26 05:44:29;;;;;;;43.90;17.58;;;3.80;99.90;;;;;;5115932;27;20070;-71
2022/01/26 05:46:54;;;;;;;40.72;15.88;;;3.60;99.90;;;;;;5113939;28;20044;-71
2022/01/26 05:49:20;;;;;;;44.95;17.50;;;3.90;99.90;;;;;;5096482;28;20047;-71
2022/01/26 05:51:46;;;;;;;40.30;16.63;;;3.40;99.90;;;;;;5080342;28;20054;-72
2022/01/26 05:54:15;;;;;;;45.67;17.52;;;3.60;99.90;;;;;;5098170;28;20083;-71
2022/01/26 05:56:42;;;;;;;44.15;17.23;;;4.30;99.90;;;;;;5097756;28;20130;-71
2022/01/26 05:59:09;;;;;;;42.60;16.90;;;3.70;99.90;;;;;;5115104;28;20116;-72
2022/01/26 06:01:35;;;;;;;39.15;16.02;;;3.30;99.90;;;;;;5113980;28;20087;-71
2022/01/26 06:04:01;;;;;;;43.25;17.15;;;4.30;99.90;;;;;;5097048;28;20055;-72
2022/01/26 06:06:26;;;;;;;41.72;16.17;;;3.80;99.90;;;;;;5113645;28;20063;-71
2022/01/26 06:08:52;;;;;;;42.90;16.50;;;3.80;99.90;;;;;;5113722;28;20364;-71
2022/01/26 06:11:18;;;;;;;43.65;17.05;;;3.40;99.90;;;;;;5096865;28;20090;-71
2022/01/26 06:13:44;;;;;;;44.17;17.95;;;3.40;99.90;;;;;;5096512;28;20059;-72
2022/01/26 06:16:10;;;;;;;41.40;17.08;;;3.30;99.90;;;;;;5096719;28;20097;-71
2022/01/26 06:18:35;;;;;;;40.83;16.13;;;4.00;99.90;;;;;;5114695;28;20047;-71
2022/01/26 06:21:01;;;;;;;42.88;16.45;;;3.60;99.90;;;;;;5113762;28;20047;-72
2022/01/26 06:23:27;;;;;;;43.22;17.48;;;3.70;99.90;;;;;;5114629;28;20051;-71
2022/01/26 06:25:55;;;;;;;36.15;15.35;;;4.00;99.90;;;;;;5114507;28;20122;-71
2022/01/26 06:28:21;;;;;;;39.63;16.45;;;4.00;99.90;;;;;;5114511;28;20080;-71
2022/01/26 06:30:52;;;;;;;39.72;15.63;;;4.00;99.90;;;;;;5115056;28;20054;-71
2022/01/26 06:33:18;;;;;;;40.55;17.00;;;3.70;99.90;;;;;;5114418;28;20048;-71
2022/01/26 06:35:44;;;;;;;41.75;17.30;;;3.50;99.90;;;;;;5113089;28;20062;-71
2022/01/26 06:38:10;;;;;;;42.95;16.98;;;3.90;99.90;;;;;;5114295;28;20059;-71
2022/01/26 06:40:36;;;;;;;42.45;16.75;;;3.40;99.90;;;;;;5113072;28;20047;-72
2022/01/26 06:43:08;;;;;;;42.72;16.90;;;3.60;99.90;;;;;;5114143;28;20126;-72
2022/01/26 06:45:39;;;;;;;38.90;16.30;;;3.30;99.90;;;;;;5096948;28;20087;-71
2022/01/26 06:50:36;;;;;;;42.70;16.33;;;3.30;99.90;;;;;;5096384;28;20513;-71
2022/01/26 06:53:02;;;;;;;42.53;16.15;;;3.50;99.90;;;;;;5079193;28;20039;-71
2022/01/26 06:55:28;;;;;;;39.17;16.92;;;3.30;99.90;;;;;;5113127;28;20055;-71
2022/01/26 06:57:54;;;;;;;40.20;16.77;;;3.70;99.90;;;;;;5113055;28;20047;-71
2022/01/26 07:00:20;;;;;;;40.95;16.17;;;3.90;99.90;;;;;;5114128;28;20051;-71
2022/01/26 07:02:45;;;;;;;39.30;17.25;;;3.50;99.90;;;;;;5113946;28;20070;-71
2022/01/26 07:05:12;;;;;;;38.15;16.58;;;3.40;99.90;;;;;;5095896;28;20087;-71
2022/01/26 07:07:39;;;;;;;42.88;16.13;;;3.30;99.90;;;;;;5112475;28;20428;-71
2022/01/26 07:10:05;;;;;;;42.92;17.27;;;3.10;99.90;;;;;;5113666;28;20100;-71
2022/01/26 07:12:31;;;;;;;38.05;16.00;;;3.30;99.90;;;;;;5095995;28;20058;-71
2022/01/26 07:22:51;;;;;;;43.58;16.58;;;3.90;99.90;;;;;;5112555;28;20062;-71
2022/01/26 07:25:17;;;;;;;42.60;16.80;;;3.50;99.90;;;;;;5113099;28;20086;-71
2022/01/26 07:27:43;;;;;;;40.80;15.65;;;3.20;99.90;;;;;;5112485;28;20122;-71
2022/01/26 07:30:09;;;;;;;37.10;15.13;;;4.00;99.90;;;;;;5113277;28;20083;-71
2022/01/26 07:32:37;;;;;;;40.75;16.30;;;3.30;99.90;;;;;;5112364;28;20491;-71
2022/01/26 07:35:06;;;;;;;38.60;16.23;;;3.70;99.90;;;;;;5079904;28;20051;-71
2022/01/26 07:37:32;;;;;;;39.30;16.40;;;3.40;99.90;;;;;;5113575;28;20043;-71
2022/01/26 07:40:07;;;;;;;43.15;15.52;;;3.30;99.90;;;;;;5113432;28;20048;-71
2022/01/26 07:42:34;;;;;;;37.28;15.95;;;3.50;99.90;;;;;;5095884;28;20046;-71
2022/01/26 07:45:00;;;;;;;39.83;16.08;;;3.50;99.90;;;;;;5113418;28;20051;-71
2022/01/26 07:47:27;;;;;;;41.80;17.15;;;3.40;99.90;;;;;;5112112;28;20047;-71
2022/01/26 07:49:55;;;;;;;52.03;22.25;;;3.40;99.90;;;;;;5113238;28;20060;-71
2022/01/26 07:52:23;;;;;;;39.33;16.98;;;3.90;99.90;;;;;;5113400;28;20043;-71
2022/01/26 07:54:51;;;;;;;43.00;18.33;;;3.30;99.90;;;;;;5095187;28;20479;-71
2022/01/26 07:57:22;;;;;;;41.28;17.20;;;3.60;99.90;;;;;;5113133;28;20047;-71
2022/01/26 07:59:47;;;;;;;42.20;16.90;;;3.80;99.90;;;;;;5112239;28;20050;-71
2022/01/26 08:02:13;;;;;;;42.95;18.00;;;3.60;99.90;;;;;;5095145;28;20040;-71
2022/01/26 08:04:39;;;;;;;42.75;17.02;;;4.00;99.90;;;;;;5113215;28;20044;-71
2022/01/26 08:07:05;;;;;;;42.40;18.05;;;4.00;99.90;;;;;;5115791;28;20384;-71
2022/01/26 08:09:30;;;;;;;43.60;16.30;;;3.40;99.90;;;;;;5115845;28;20092;-71
2022/01/26 08:11:56;;;;;;;47.50;17.33;;;3.60;99.90;;;;;;5116480;28;20090;-71
2022/01/26 08:14:22;;;;;;;42.60;17.02;;;3.20;99.90;;;;;;5098645;28;20509;-71
2022/01/26 08:16:48;;;;;;;40.00;17.05;;;4.00;99.90;;;;;;5116819;28;20043;-71
2022/01/26 08:19:14;;;;;;;42.35;17.55;;;3.50;99.90;;;;;;5098943;28;20189;-71
2022/01/26 08:21:41;;;;;;;42.97;17.35;;;3.40;99.90;;;;;;5116990;28;20055;-71
2022/01/26 08:24:13;;;;;;;46.08;20.02;;;3.10;99.90;;;;;;5098928;28;20055;-71
2022/01/26 08:26:44;;;;;;;43.67;17.27;;;3.30;99.90;;;;;;5116740;28;20039;-71
2022/01/26 08:29:22;;;;;;;39.95;17.98;;;3.50;99.90;;;;;;5115673;28;20376;-71
2022/01/26 08:31:47;;;;;;;46.70;18.95;;;3.50;99.90;;;;;;5085296;28;20048;-71
2022/01/26 08:34:13;;;;;;;47.97;19.15;;;4.40;99.90;;;;;;5116552;28;20043;-71
2022/01/26 08:36:39;;;;;;;45.00;19.40;;;4.00;99.90;;;;;;5115624;28;20043;-71
2022/01/26 08:39:05;;;;;;;42.22;18.33;;;3.50;99.90;;;;;;5081731;28;20470;-71
2022/01/26 08:41:31;;;;;;;43.17;19.08;;;2.80;99.90;;;;;;5117089;28;20043;-70
2022/01/26 08:43:57;;;;;;;47.75;19.50;;;3.30;99.90;;;;;;5115463;28;20539;-70
2022/01/26 08:46:23;;;;;;;46.45;19.50;;;3.50;99.90;;;;;;5116080;28;20146;-70
2022/01/26 08:48:49;;;;;;;43.28;18.90;;;3.50;99.90;;;;;;5116111;28;20047;-70
2022/01/26 08:51:17;;;;;;;46.35;18.70;;;3.30;99.90;;;;;;5098558;28;20110;-73
2022/01/26 08:53:42;;;;;;;48.03;20.52;;;3.30;99.90;;;;;;5116443;28;20055;-73
2022/01/26 08:56:08;;;;;;;45.47;20.13;;;3.60;99.90;;;;;;5116419;28;20039;-73
2022/01/26 08:58:34;;;;;;;46.72;20.98;;;3.60;99.90;;;;;;5115130;28;20471;-71
2022/01/26 09:01:00;;;;;;;45.33;19.83;;;3.30;99.90;;;;;;5098339;28;20039;-70
2022/01/26 09:03:25;;;;;;;48.40;20.08;;;3.40;99.90;;;;;;5114992;28;20484;-71
2022/01/26 09:05:51;;;;;;;49.75;21.23;;;4.20;99.90;;;;;;5098009;28;20090;-71
2022/01/26 09:08:18;;;;;;;58.65;23.42;;;3.50;99.90;;;;;;5116592;28;20130;-69
2022/01/26 09:10:45;;;;;;;56.13;23.20;;;4.00;99.90;;;;;;5114889;28;20047;-69
2022/01/26 09:13:11;;;;;;;46.65;20.13;;;3.40;99.90;;;;;;5081974;28;20075;-69
2022/01/26 09:15:39;;;;;;;47.83;21.55;;;4.20;99.90;;;;;;5115641;28;20044;-68
2022/01/26 09:18:06;;;;;;;47.17;20.42;;;3.80;99.90;;;;;;5114706;28;20054;-68
2022/01/26 09:20:35;;;;;;;49.22;22.38;;;3.70;99.90;;;;;;5115871;28;20047;-69
2022/01/26 09:23:01;;;;;;;47.53;21.92;;;3.60;99.90;;;;;;5115517;28;20487;-69
2022/01/26 09:25:27;;;;;;;59.70;22.92;;;3.50;99.90;;;;;;5114651;28;20047;-69
2022/01/26 09:27:53;;;;;;;50.22;21.23;;;3.70;99.90;;;;;;5115775;28;20047;-69
2022/01/26 09:30:18;;;;;;;54.20;21.92;;;3.60;99.90;;;;;;5097666;28;20039;-69
2022/01/26 09:32:44;;;;;;;54.42;22.70;;;3.50;99.90;;;;;;5097487;28;20421;-69
2022/01/26 09:35:10;;;;;;;56.63;24.35;;;3.70;99.90;;;;;;5114856;28;20044;-69
2022/01/26 09:37:36;;;;;;;51.70;22.95;;;3.90;99.90;;;;;;5114544;28;20085;-69
2022/01/26 09:40:04;;;;;;;56.53;23.45;;;4.00;99.90;;;;;;5115418;28;20046;-70
2022/01/26 09:42:32;;;;;;;54.55;22.42;;;3.80;99.90;;;;;;5097359;28;20080;-70
2022/01/26 09:45:00;;;;;;;53.40;22.67;;;4.00;99.90;;;;;;5114195;28;20543;-70
2022/01/26 09:47:25;;;;;;;58.17;23.42;;;4.90;99.90;;;;;;5115246;28;20094;-70
2022/01/26 09:49:51;;;;;;;58.40;23.73;;;4.00;99.90;;;;;;5114879;28;20121;-70
2022/01/26 09:52:22;;;;;;;59.65;25.98;;;3.80;99.90;;;;;;5114016;28;20130;-69
2022/01/26 09:54:49;;;;;;;60.63;24.83;;;3.90;99.90;;;;;;5114450;28;20126;-70
2022/01/26 09:57:15;;;;;;;55.88;24.58;;;4.10;99.90;;;;;;5113971;28;20055;-69
2022/01/26 09:59:41;;;;;;;55.15;23.58;;;4.20;99.90;;;;;;5115124;27;20046;-70
2022/01/26 10:02:07;;;;;;;57.83;24.70;;;3.80;99.90;;;;;;5113817;28;20410;-69
2022/01/26 10:04:39;;;;;;;62.65;24.23;;;4.00;99.90;;;;;;5097087;28;20047;-70
2022/01/26 10:17:44;;;;;;;53.15;23.83;;;4.10;99.90;;;;;;5115574;28;20052;-70
2022/01/26 10:20:15;;;;;;;63.22;25.92;;;4.00;99.90;;;;;;5113524;28;20050;-70
2022/01/26 10:22:42;;;;;;;56.90;25.38;;;4.50;99.90;;;;;;5115256;28;20126;-70
2022/01/26 10:25:09;;;;;;;54.63;23.40;;;3.90;99.90;;;;;;5114668;28;20048;-71
2022/01/26 10:27:49;;;;;;;59.50;24.50;;;3.90;99.90;;;;;;5113867;28;20050;-70
2022/01/26 10:30:18;;;;;;;62.63;26.38;;;4.10;99.90;;;;;;5115234;28;20059;-70
2022/01/26 10:32:45;;;;;;;59.67;25.85;;;4.30;99.90;;;;;;5113289;28;20048;-70
2022/01/26 10:35:14;;;;;;;59.22;25.42;;;4.20;99.90;;;;;;5114587;28;20051;-70
2022/01/26 10:37:48;;;;;;;58.97;24.60;;;4.20;99.90;;;;;;5096572;28;20140;-70
2022/01/26 10:40:19;;;;;;;55.05;24.98;;;4.30;99.90;;;;;;5113775;28;20054;-70
2022/01/26 10:43:04;;;;;;;55.35;24.50;;;4.00;99.90;;;;;;5115308;28;20144;-70
2022/01/26 10:45:54;;;;;;;56.88;24.88;;;4.10;99.90;;;;;;5112025;28;20090;-69
2022/01/26 10:48:39;;;;;;;57.28;24.30;;;4.10;99.90;;;;;;5113552;28;20101;-70
2022/01/26 10:53:57;;;;;;;51.17;23.60;;;5.40;99.90;;;;;;5112856;28;20086;-71
2022/01/26 10:56:23;;;;;;;55.50;24.20;;;4.40;99.90;;;;;;5112780;28;20402;-71
2022/01/26 10:58:49;;;;;;;56.08;25.10;;;5.40;99.90;;;;;;5095841;28;20048;-71
2022/01/26 11:01:14;;;;;;;55.25;23.70;;;4.20;99.90;;;;;;5113137;28;20035;-70
2022/01/26 11:03:40;;;;;;;52.60;21.83;;;4.50;99.90;;;;;;5113258;28;20055;-70
2022/01/26 11:06:08;;;;;;;58.75;24.20;;;4.50;99.90;;;;;;5112501;28;20044;-70
2022/01/26 11:08:40;;;;;;;50.58;22.77;;;4.40;99.90;;;;;;5113772;28;20055;-70
2022/01/26 11:11:06;;;;;;;57.23;23.20;;;4.30;99.90;;;;;;5095645;28;20047;-70
2022/01/26 11:13:36;;;;;;;55.88;24.48;;;4.60;99.90;;;;;;5112141;28;20304;-71
2022/01/26 11:16:11;;;;;;;54.65;24.27;;;4.50;99.90;;;;;;5112552;28;20054;-70
2022/01/26 11:18:47;;;;;;;55.05;24.48;;;4.20;99.90;;;;;;5113764;28;20089;-70
2022/01/26 11:21:35;;;;;;;56.65;22.80;;;4.30;99.90;;;;;;5112091;28;20048;-71
2022/01/26 11:24:24;;;;;;;56.75;23.52;;;5.10;99.90;;;;;;5113283;28;20052;-70
2022/01/26 11:27:04;;;;;;;57.20;23.83;;;4.00;99.90;;;;;;5084971;28;20075;-71
2022/01/26 11:29:34;;;;;;;57.20;23.58;;;4.40;99.90;;;;;;5112513;28;20051;-70
2022/01/26 11:32:18;;;;;;;53.88;23.48;;;4.50;99.90;;;;;;5113353;28;20495;-70
2022/01/26 11:34:44;;;;;;;55.80;23.67;;;4.40;99.90;;;;;;5112489;28;20063;-70
2022/01/26 11:37:14;;;;;;;59.10;26.73;;;4.30;99.90;;;;;;5112056;28;20074;-70
2022/01/26 11:45:12;;;;;;;58.08;25.08;;;4.50;99.90;;;;;;5117542;28;20055;-71
2022/01/26 11:47:41;;;;;;;60.33;25.00;;;4.20;99.90;;;;;;5117033;28;20040;-70
2022/01/26 11:50:18;;;;;;;59.97;25.95;;;4.80;99.90;;;;;;5116652;28;20052;-70
2022/01/26 11:52:57;;;;;;;54.45;23.80;;;4.50;99.90;;;;;;5116312;28;20094;-71
2022/01/26 11:55:34;;;;;;;57.65;23.48;;;4.80;99.90;;;;;;5115795;28;20055;-70
2022/01/26 11:58:06;;;;;;;57.03;25.63;;;4.30;99.90;;;;;;5116030;28;20051;-68
2022/01/26 12:01:24;;;;;;;56.67;23.17;;;4.90;99.90;;;;;;5115329;28;20047;-68
2022/01/26 12:03:31;;;;;;;55.20;22.70;;;4.30;99.90;;;;;;5110891;28;20052;-70
2022/01/26 12:05:58;;;;;;;57.22;23.05;;;5.10;99.90;;;;;;5116544;27;20044;-69
2022/01/26 12:08:37;;;;;;;57.83;23.17;;;4.30;99.90;;;;;;5099221;28;20048;-68
2022/01/26 12:11:05;;;;;;;56.22;22.65;;;4.40;99.90;;;;;;5115774;28;20043;-68
2022/01/26 12:13:33;;;;;;;54.92;22.55;;;4.40;99.90;;;;;;5116986;28;20144;-71
2022/01/26 12:16:08;;;;;;;49.20;20.33;;;4.50;99.90;;;;;;5115414;28;20620;-70
2022/01/26 12:38:17;;;;;;;47.25;20.98;;;4.60;99.90;;;;;;5116155;28;20116;-70
2022/01/26 12:43:50;;;;;;;52.33;21.20;;;4.80;99.90;;;;;;5115371;28;20052;-70
2022/01/26 12:46:29;;;;;;;47.85;20.40;;;4.60;99.90;;;;;;5114525;28;20043;-70
2022/01/26 12:48:59;;;;;;;48.83;19.70;;;4.60;99.90;;;;;;5114606;28;20061;-71
2022/01/26 12:51:26;;;;;;;50.72;20.48;;;4.80;99.90;;;;;;5115217;28;20056;-70
2022/01/26 12:54:02;;;;;;;55.05;21.00;;;4.80;99.90;;;;;;5115919;28;20067;-70
2022/01/26 12:56:30;;;;;;;54.55;21.55;;;4.90;99.90;;;;;;5115796;28;20074;-71
2022/01/26 12:59:08;;;;;;;49.65;21.75;;;4.50;99.90;;;;;;5115903;27;20051;-71
2022/01/26 13:01:34;;;;;;;48.95;20.27;;;4.70;99.90;;;;;;5114665;28;20051;-71
2022/01/26 13:04:06;;;;;;;51.63;20.27;;;4.60;99.90;;;;;;5114277;28;20058;-71
2022/01/26 13:06:38;;;;;;;54.03;20.83;;;4.50;99.90;;;;;;5114038;28;20040;-70
2022/01/26 13:09:26;;;;;;;46.13;19.60;;;4.70;99.90;;;;;;5114659;28;20054;-71
2022/01/26 13:11:57;;;;;;;52.85;20.83;;;4.50;99.90;;;;;;5116195;28;20136;-70
2022/01/26 13:14:34;;;;;;;51.78;20.55;;;4.50;99.90;;;;;;5114588;28;20368;-70
2022/01/26 13:17:14;;;;;;;53.08;20.73;;;4.60;99.90;;;;;;5115593;28;20464;-70
2022/01/26 13:20:29;;;;;;;47.72;20.00;;;4.60;99.90;;;;;;5097566;28;20479;-70
2022/01/26 13:49:20;;;;;;;42.78;17.67;;;5.20;99.90;;;;;;5097849;28;20047;-70
2022/01/26 13:54:55;;;;;;;40.67;17.40;;;4.90;99.90;;;;;;5115586;28;20114;-71
2022/01/26 13:59:58;;;;;;;39.83;17.38;;;4.80;99.90;;;;;;5115065;28;20051;-71
2022/01/26 14:02:27;;;;;;;41.35;18.60;;;4.90;99.90;;;;;;5113165;28;20070;-70
2022/01/26 14:04:53;;;;;;;46.83;16.67;;;4.90;99.90;;;;;;5114012;28;20128;-71
2022/01/26 14:07:19;;;;;;;41.10;17.13;;;4.80;99.90;;;;;;5096945;28;20077;-71
2022/01/26 14:09:45;;;;;;;45.97;18.33;;;5.10;99.90;;;;;;5114349;28;20093;-70
2022/01/26 14:12:14;;;;;;;41.45;17.73;;;5.70;99.90;;;;;;5114667;28;20497;-71
2022/01/26 14:14:43;;;;;;;44.83;18.92;;;4.90;99.90;;;;;;5114842;28;20134;-71
2022/01/26 14:17:17;;;;;;;43.00;17.95;;;5.10;99.90;;;;;;5114609;28;20055;-70
2022/01/26 14:25:26;;;;;;;41.42;18.40;;;5.10;99.90;;;;;;5114057;28;20060;-70
2022/01/26 14:27:56;;;;;;;42.85;19.05;;;5.10;99.90;;;;;;5114630;28;20082;-71
2022/01/26 14:30:45;;;;;;;45.80;18.38;;;5.20;99.90;;;;;;5113560;28;20048;-72
2022/01/26 14:54:51;;;;;;;41.88;17.65;;;4.80;99.90;;;;;;5113849;28;20494;-72
2022/01/26 15:19:19;;;;;;;39.55;18.00;;;5.20;99.90;;;;;;5117771;28;20142;-71
2022/01/26 15:31:12;;;;;;;40.38;17.90;;;5.20;99.90;;;;;;5117964;28;20047;-71
2022/01/26 15:35:26;;;;;;;38.83;16.10;;;5.30;99.90;;;;;;5117016;28;20100;-70
2022/01/26 15:48:50;;;;;;;41.90;17.27;;;5.10;99.90;;;;;;5117632;28;20090;-71
2022/01/26 15:51:56;;;;;;;38.50;17.67;;;5.10;99.90;;;;;;5116324;28;20052;-71
2022/01/26 16:21:11;;;;;;;66.45;55.42;;;5.20;99.90;;;;;;5117215;28;20051;-70
2022/01/26 16:26:55;;;;;;;44.42;24.27;;;5.70;99.90;;;;;;5114689;28;20130;-71
2022/01/26 17:27:46;;;;;;;36.03;17.02;;;5.50;99.90;;;;;;5083534;28;20044;-71
2022/01/26 18:50:39;;;;;;;33.72;15.43;;;5.30;99.90;;;;;;5113003;28;20050;-70
2022/01/26 18:53:07;;;;;;;32.45;15.68;;;6.00;99.90;;;;;;5113720;28;20044;-70
2022/01/26 18:55:33;;;;;;;33.17;15.35;;;5.60;99.90;;;;;;5095855;28;20058;-69
2022/01/26 18:57:58;;;;;;;32.25;14.90;;;5.90;99.90;;;;;;5113749;28;20396;-68
2022/01/26 19:00:24;;;;;;;32.38;14.30;;;5.80;99.90;;;;;;5112564;28;20048;-68
2022/01/26 19:02:50;;;;;;;31.00;14.40;;;5.50;99.90;;;;;;5113647;28;20100;-69
2022/01/26 19:05:16;;;;;;;33.67;15.63;;;5.50;99.90;;;;;;5112545;28;20127;-70
2022/01/26 19:07:43;;;;;;;29.65;14.90;;;5.50;99.90;;;;;;5112368;28;20040;-72
2022/01/26 19:10:10;;;;;;;30.73;14.63;;;5.90;99.90;;;;;;5095371;28;20062;-71
2022/01/26 19:12:38;;;;;;;30.05;13.65;;;5.40;99.90;;;;;;5113275;28;20504;-71
2022/01/26 19:15:09;;;;;;;32.53;13.23;;;5.40;99.90;;;;;;5113253;28;20090;-72
2022/01/26 19:17:41;;;;;;;29.13;13.20;;;5.50;99.90;;;;;;5096478;28;20150;-72
2022/01/26 19:25:29;;;;;;;28.35;13.77;;;6.00;99.90;;;;;;5113635;28;20070;-70
2022/01/26 19:31:45;;;;;;;29.67;13.27;;;5.80;99.90;;;;;;5095340;28;20051;-70
2022/01/26 19:40:06;;;;;;;;;;;5.80;99.90;;;;;;5113322;28;20098;-70
2022/01/26 19:43:32;;;;;;;27.42;13.00;;;5.90;99.90;;;;;;5112000;28;20079;-71
2022/01/26 19:50:44;;;;;;;28.48;13.18;;;5.90;99.90;;;;;;5074990;28;20047;-71
2022/01/26 19:53:04;;;;;;;26.15;12.80;;;5.70;99.90;;;;;;5113426;28;20399;-70
2022/01/26 19:55:30;;;;;;;24.73;12.45;;;6.50;99.90;;;;;;5113976;28;20091;-70
2022/01/26 19:57:56;;;;;;;25.17;12.80;;;5.90;99.90;;;;;;5094982;28;20082;-71
2022/01/26 20:00:22;;;;;;;26.60;12.98;;;5.90;99.90;;;;;;5097325;28;20040;-70